»·PEaware :: AAL1403 KDFW-KMIA

AAL1403 :: KDFW-KMIA

FLIGHT INFORMATION

Flight Status: Arrived
Operator:
American Airlines
More flights by this operator :: More flights under this callsign
Pilot: Drew L. (13237)
Aircraft: BOEING 737-800
(B738)
More flights by this aircraft type
Origin: KDFW Dallas-Ft Worth Intl
United States
Destination: KMIA Miami Intl
United States
More flights between these airports :: More routes between these airports
Route: MRSSH2 ZALEA SWB HRV Q105 BLVNS Q102 BAGGS SSCOT4
File this flight plan on PilotEdge
Remarks: PBN / A1B1C1D1S1S2 DOF / 180325 REG / N806SB EET / KZHU0031 KZJX0109 KZMA0126 OPR / AAL PER / C RMK / TCAS SIMBRIEF
Altitude:
(Current/Filed)
37,000ft
Speed:
(Current/Filed)
452kts
Departed: 25-Mar-18 01:25 PM
Arrived: 25-Mar-18 03:49 PM
Distance/Time
Traveled:
973nm/2:24
Distance/Time
To Go:
Arrived

Flight Plot

Page will automatically refresh every two minutes.

Flight plan parsing failed; only flown route is shown


Map Options




Map Legend


Flown Route
Filed Route
Departure Airport
Arrival Airport
Navaid (VOR, NDB)
Fix

Horizontal Profiles

Position Reports

Time Latitude Longitude Heading Altitude Ground
Speed
25-Mar-18 13:05 32.907700 -97.038315 179 615ft 0kts
25-Mar-18 13:06 32.907700 -97.038315 179 615ft 0kts
25-Mar-18 13:07 32.907700 -97.038315 179 615ft 0kts
25-Mar-18 13:08 32.907700 -97.038315 179 615ft 0kts
25-Mar-18 13:09 32.907700 -97.038315 179 615ft 0kts
25-Mar-18 13:10 32.907700 -97.038315 179 615ft 0kts
25-Mar-18 13:11 32.907700 -97.038315 179 615ft 0kts
25-Mar-18 13:12 32.907700 -97.038315 179 615ft 0kts
25-Mar-18 13:13 32.907700 -97.038315 179 615ft 0kts
25-Mar-18 13:14 32.907700 -97.038315 179 615ft 0kts
25-Mar-18 13:15 32.907700 -97.038315 179 615ft 0kts
25-Mar-18 13:16 32.907700 -97.038315 179 615ft 0kts
25-Mar-18 13:17 32.907709 -97.038315 179 615ft 0kts
25-Mar-18 13:18 32.908335 -97.038316 179 615ft 2kts
25-Mar-18 13:19 32.908947 -97.038316 179 615ft 0kts
25-Mar-18 13:20 32.908947 -97.038316 179 615ft 0kts
25-Mar-18 13:21 32.908947 -97.038316 179 615ft 1kts
25-Mar-18 13:22 32.908947 -97.038316 179 615ft 0kts
25-Mar-18 13:23 32.908947 -97.038316 179 615ft 0kts
25-Mar-18 13:24 32.908947 -97.038316 179 615ft 54kts
25-Mar-18 13:25 32.908947 -97.038316 179 615ft 230kts
25-Mar-18 13:26 32.908840 -97.038290 161 615ft 5kts
25-Mar-18 13:27 32.908884 -97.034725 66 615ft 13kts
25-Mar-18 13:28 32.910478 -97.032691 4 615ft 0kts
25-Mar-18 13:29 32.915087 -97.032644 359 615ft 19kts
25-Mar-18 13:30 32.915019 -97.029816 178 615ft 11kts
25-Mar-18 13:31 32.888624 -97.030010 180 857ft 167kts
25-Mar-18 13:32 32.840939 -97.030628 178 3515ft 186kts
25-Mar-18 13:33 32.778060 -97.030381 180 5468ft 248kts
25-Mar-18 13:34 32.709307 -97.016385 138 8468ft 274kts
25-Mar-18 13:35 32.687320 -96.922889 93 10811ft 321kts
25-Mar-18 13:36 32.689826 -96.805757 90 11981ft 388kts
25-Mar-18 13:37 32.692477 -96.667895 90 13159ft 437kts
25-Mar-18 13:38 32.694626 -96.520607 91 14998ft 457kts
25-Mar-18 13:39 32.696355 -96.366357 91 16724ft 476kts
25-Mar-18 13:40 32.689407 -96.207430 97 18347ft 490kts
25-Mar-18 13:41 32.677809 -96.044311 96 19936ft 502kts
25-Mar-18 13:42 32.666170 -95.876807 95 21331ft 514kts
25-Mar-18 13:43 32.654142 -95.706045 95 22540ft 525kts
25-Mar-18 13:44 32.641595 -95.532339 95 23614ft 534kts
25-Mar-18 13:45 32.628884 -95.355529 95 24663ft 540kts
25-Mar-18 13:46 32.615921 -95.177398 95 25774ft 542kts
25-Mar-18 13:47 32.602751 -94.999291 95 27138ft 539kts
25-Mar-18 13:48 32.589002 -94.822911 97 28530ft 536kts
25-Mar-18 13:49 32.552224 -94.653583 111 29909ft 530kts
25-Mar-18 13:50 32.504411 -94.488363 111 31217ft 529kts
25-Mar-18 13:51 32.457403 -94.323573 110 32357ft 530kts
25-Mar-18 13:52 32.410284 -94.158220 110 33455ft 529kts
25-Mar-18 13:53 32.362940 -93.993464 110 34469ft 530kts
25-Mar-18 13:54 32.315412 -93.828948 110 35447ft 529kts
25-Mar-18 13:55 32.267605 -93.663928 110 36325ft 530kts
25-Mar-18 13:56 32.219426 -93.499619 111 36987ft 532kts
25-Mar-18 13:57 32.170706 -93.335502 111 36996ft 529kts
25-Mar-18 13:58 32.121675 -93.171518 111 37009ft 529kts
25-Mar-18 13:59 32.073037 -93.008098 110 37005ft 529kts
25-Mar-18 14:00 32.023871 -92.844219 111 37006ft 529kts
25-Mar-18 14:01 31.969974 -92.683364 121 37008ft 527kts
25-Mar-18 14:02 31.879369 -92.551010 137 37009ft 518kts
25-Mar-18 14:03 31.780858 -92.426468 137 37002ft 519kts
25-Mar-18 14:04 31.683481 -92.301083 136 36988ft 520kts
25-Mar-18 14:05 31.585939 -92.175252 136 36993ft 520kts
25-Mar-18 14:06 31.488592 -92.050100 136 36993ft 520kts
25-Mar-18 14:07 31.391103 -91.925181 136 37000ft 520kts
25-Mar-18 14:08 31.293291 -91.800256 136 37005ft 520kts
25-Mar-18 14:09 31.195607 -91.675898 136 37014ft 520kts
25-Mar-18 14:10 31.097817 -91.551819 136 37017ft 519kts
25-Mar-18 14:11 30.999635 -91.427653 136 37019ft 519kts
25-Mar-18 14:12 30.901574 -91.304045 136 37019ft 520kts
25-Mar-18 14:13 30.803027 -91.180204 136 37021ft 520kts
25-Mar-18 14:14 30.704620 -91.056976 136 37021ft 521kts
25-Mar-18 14:15 30.606058 -90.933928 136 37021ft 521kts
25-Mar-18 14:16 30.506944 -90.810595 136 37025ft 521kts
25-Mar-18 14:17 30.407996 -90.687854 136 37030ft 522kts
25-Mar-18 14:18 30.308831 -90.565240 136 37032ft 522kts
25-Mar-18 14:19 30.209320 -90.442579 136 37035ft 522kts
25-Mar-18 14:20 30.109745 -90.320221 136 37039ft 523kts
25-Mar-18 14:21 30.009797 -90.197537 136 37040ft 523kts
25-Mar-18 14:22 29.909869 -90.075631 136 37047ft 523kts
25-Mar-18 14:23 29.811645 -89.951930 131 37050ft 525kts
25-Mar-18 14:24 29.717883 -89.822557 132 37053ft 525kts
25-Mar-18 14:25 29.623546 -89.694546 132 37061ft 525kts
25-Mar-18 14:26 29.529128 -89.566965 132 37069ft 524kts
25-Mar-18 14:27 29.434277 -89.438865 132 37076ft 526kts
25-Mar-18 14:28 29.339619 -89.311194 132 37080ft 526kts
25-Mar-18 14:29 29.244694 -89.183756 132 37080ft 525kts
25-Mar-18 14:30 29.149458 -89.056331 132 37083ft 526kts
25-Mar-18 14:31 29.054457 -88.929372 132 37087ft 526kts
25-Mar-18 14:32 28.958852 -88.802322 132 37091ft 526kts
25-Mar-18 14:33 28.863542 -88.675768 131 37093ft 527kts
25-Mar-18 14:34 28.768710 -88.548825 131 37094ft 525kts
25-Mar-18 14:35 28.673546 -88.421800 131 37094ft 526kts
25-Mar-18 14:36 28.578793 -88.295012 131 37095ft 527kts
25-Mar-18 14:37 28.483427 -88.168086 131 37094ft 527kts
25-Mar-18 14:38 28.391041 -88.039183 122 37093ft 528kts
25-Mar-18 14:39 28.336696 -87.885720 104 37094ft 525kts
25-Mar-18 14:40 28.292706 -87.727242 105 37090ft 526kts
25-Mar-18 14:41 28.247491 -87.569735 105 37089ft 525kts
25-Mar-18 14:42 28.201659 -87.412128 105 37089ft 525kts
25-Mar-18 14:43 28.155699 -87.255409 106 37088ft 524kts
25-Mar-18 14:44 28.109418 -87.098319 105 37088ft 525kts
25-Mar-18 14:45 28.063183 -86.941862 106 37088ft 524kts
25-Mar-18 14:46 28.016597 -86.785780 106 37091ft 524kts
25-Mar-18 14:47 27.970927 -86.629107 105 37095ft 522kts
25-Mar-18 14:48 27.925470 -86.473167 105 37094ft 523kts
25-Mar-18 14:49 27.887661 -86.343372 105 37095ft 522kts
25-Mar-18 14:50 27.834525 -86.161241 105 37096ft 522kts
25-Mar-18 14:51 27.796420 -86.031628 105 37098ft 522kts
25-Mar-18 14:52 27.750368 -85.875735 105 37099ft 522kts
25-Mar-18 14:53 27.696587 -85.694597 105 37101ft 522kts
25-Mar-18 14:54 27.658180 -85.565216 105 37100ft 522kts
25-Mar-18 14:55 27.611524 -85.409851 105 37105ft 521kts
25-Mar-18 14:56 27.574597 -85.252834 96 37106ft 517kts
25-Mar-18 14:57 27.548100 -85.093847 97 37108ft 516kts
25-Mar-18 14:58 27.520378 -84.934812 97 37119ft 516kts
25-Mar-18 14:59 27.492291 -84.776393 97 37123ft 516kts
25-Mar-18 15:00 27.463919 -84.618076 97 37124ft 516kts
25-Mar-18 15:01 27.435227 -84.459333 97 37126ft 516kts
25-Mar-18 15:02 27.406819 -84.301212 97 37129ft 515kts
25-Mar-18 15:03 27.378130 -84.142713 97 37135ft 516kts
25-Mar-18 15:04 27.349273 -83.984868 97 37137ft 516kts
25-Mar-18 15:05 27.320211 -83.827071 97 37138ft 516kts
25-Mar-18 15:06 27.290859 -83.668768 98 37135ft 517kts
25-Mar-18 15:07 27.261434 -83.511116 98 37136ft 516kts
25-Mar-18 15:08 27.231746 -83.353082 98 37136ft 516kts
25-Mar-18 15:09 27.201982 -83.195616 98 37136ft 516kts
25-Mar-18 15:10 27.172193 -83.038222 98 37138ft 516kts
25-Mar-18 15:11 27.140527 -82.880666 105 37132ft 519kts
25-Mar-18 15:12 27.057744 -82.749317 137 37144ft 522kts
25-Mar-18 15:13 26.951877 -82.637961 137 37149ft 522kts
25-Mar-18 15:14 26.847660 -82.523851 136 37147ft 523kts
25-Mar-18 15:15 26.744233 -82.409779 136 37147ft 523kts
25-Mar-18 15:16 26.640707 -82.296196 136 37142ft 507kts
25-Mar-18 15:17 26.542913 -82.190257 138 36661ft 482kts
25-Mar-18 15:18 26.447171 -82.088845 137 35226ft 468kts
25-Mar-18 15:19 26.354193 -81.990150 137 33580ft 452kts
25-Mar-18 15:20 26.264466 -81.895168 137 31649ft 438kts
25-Mar-18 15:21 26.177624 -81.803166 133 29816ft 425kts
25-Mar-18 15:22 26.124067 -81.689684 107 28014ft 408kts
25-Mar-18 15:23 26.087259 -81.572955 107 26262ft 393kts
25-Mar-18 15:24 26.051312 -81.459998 107 24496ft 380kts
25-Mar-18 15:25 26.016308 -81.351711 108 22708ft 366kts
25-Mar-18 15:26 25.982362 -81.247114 108 20896ft 353kts
25-Mar-18 15:27 25.949508 -81.145981 108 19086ft 341kts
25-Mar-18 15:28 25.917673 -81.048728 108 17344ft 329kts
25-Mar-18 15:29 25.886839 -80.954921 109 15654ft 318kts
25-Mar-18 15:30 25.856269 -80.864461 106 13972ft 307kts
25-Mar-18 15:31 25.853773 -80.772622 84 12315ft 294kts
25-Mar-18 15:32 25.859554 -80.683489 85 10638ft 285kts
25-Mar-18 15:33 25.857707 -80.597330 110 8937ft 275kts
25-Mar-18 15:34 25.822716 -80.527344 119 7273ft 234kts
25-Mar-18 15:35 25.793993 -80.465204 99 5445ft 219kts
25-Mar-18 15:36 25.797122 -80.399066 87 3996ft 215kts
25-Mar-18 15:37 25.799005 -80.330795 88 3979ft 233kts
25-Mar-18 15:38 25.800847 -80.253502 88 4014ft 245kts
25-Mar-18 15:39 25.841544 -80.210342 347 4011ft 245kts
25-Mar-18 15:40 25.883822 -80.259121 273 4020ft 245kts
25-Mar-18 15:41 25.882482 -80.329598 267 3932ft 206kts
25-Mar-18 15:42 25.880858 -80.390111 267 4006ft 200kts
25-Mar-18 15:43 25.859661 -80.434151 165 3265ft 178kts
25-Mar-18 15:44 25.823527 -80.406653 144 2483ft 158kts
25-Mar-18 15:45 25.798320 -80.365404 98 1244ft 151kts
25-Mar-18 15:46 25.799959 -80.320537 91 448ft 153kts
25-Mar-18 15:47 25.801625 -80.279706 88 16ft 76kts
25-Mar-18 15:48 25.799768 -80.277139 268 16ft 16kts
25-Mar-18 15:49 25.797901 -80.278887 176 16ft 0kts
25-Mar-18 15:50 25.797763 -80.278878 175 16ft 0kts
25-Mar-18 15:51 25.797762 -80.278878 175 16ft 0kts
25-Mar-18 15:52 25.797760 -80.278878 175 16ft 0kts
25-Mar-18 15:53 25.797759 -80.278878 175 16ft 0kts
25-Mar-18 15:54 25.797759 -80.278878 175 16ft 0kts
25-Mar-18 15:55 25.797759 -80.278878 175 16ft 0kts
25-Mar-18 15:56 25.797759 -80.278878 175 16ft 0kts
25-Mar-18 15:57 25.797759 -80.278878 175 16ft 0kts

Navigation Log

Ident Type
Flight plan parsing failed, navigation log unavailable